Time;durP1;ratioP1;P1;durP2;ratioP2;P2;SDS_P1;SDS_P2;PMS_P1;PMS_P2;Temp;Humidity;BMP_temperature;BMP_pressure;BME280_temperature;BME280_humidity;BME280_pressure;Samples;Min_cycle;Max_cycle;Signal;HPM_P1;HPM_P2
2023/08/01 00:02:24;;;;;;;10.32;4.93;;;16.50;99.90;;;;;;5053090;28;20127;-84
2023/08/01 00:04:50;;;;;;;10.65;5.78;;;16.40;99.90;;;;;;5068367;28;20040;-84
2023/08/01 00:07:15;;;;;;;9.57;5.32;;;16.20;99.90;;;;;;5087573;28;20048;-84
2023/08/01 00:09:41;;;;;;;7.60;6.00;;;16.20;99.90;;;;;;5075867;28;20095;-85
2023/08/01 00:12:07;;;;;;;11.07;6.85;;;16.60;99.90;;;;;;5079953;28;20036;-85
2023/08/01 00:14:32;;;;;;;11.02;6.85;;;16.20;99.90;;;;;;5086305;28;20092;-84
2023/08/01 00:16:58;;;;;;;15.15;6.93;;;16.40;99.90;;;;;;5071194;28;20058;-85
2023/08/01 00:19:24;;;;;;;12.93;6.85;;;16.20;99.90;;;;;;5063061;28;20036;-84
2023/08/01 00:21:49;;;;;;;10.20;6.90;;;16.80;99.90;;;;;;5052186;28;20112;-84
2023/08/01 00:24:18;;;;;;;11.05;6.93;;;16.20;99.90;;;;;;5077632;28;20075;-84
2023/08/01 00:26:43;;;;;;;10.88;7.43;;;16.20;99.90;;;;;;5083706;28;20079;-84
2023/08/01 00:29:09;;;;;;;9.05;6.70;;;16.20;99.90;;;;;;5082185;28;20079;-84
2023/08/01 00:31:34;;;;;;;10.52;6.90;;;16.20;99.90;;;;;;5067962;28;20109;-84
2023/08/01 00:34:00;;;;;;;12.10;6.93;;;16.20;99.90;;;;;;5083020;28;20543;-84
2023/08/01 00:36:26;;;;;;;10.88;6.72;;;16.20;99.90;;;;;;5088217;28;20036;-83
2023/08/01 00:38:51;;;;;;;14.35;7.13;;;16.50;99.90;;;;;;5065628;28;20048;-84
2023/08/01 00:41:17;;;;;;;10.40;7.45;;;16.20;99.90;;;;;;5084971;28;20051;-84
2023/08/01 00:43:42;;;;;;;10.45;6.78;;;16.20;99.90;;;;;;5082934;28;20048;-84
2023/08/01 00:46:09;;;;;;;10.32;7.45;;;16.20;99.90;;;;;;5086278;28;20074;-84
2023/08/01 00:48:35;;;;;;;11.63;7.38;;;16.10;99.90;;;;;;5082240;28;20491;-85
2023/08/01 00:51:04;;;;;;;12.02;7.00;;;16.20;99.90;;;;;;5079439;28;20047;-85
2023/08/01 00:53:30;;;;;;;13.32;6.97;;;16.20;99.90;;;;;;5068580;28;20156;-84
2023/08/01 00:55:57;;;;;;;13.80;7.57;;;16.20;99.90;;;;;;5066371;28;20094;-84
2023/08/01 00:58:23;;;;;;;9.40;6.93;;;16.10;99.90;;;;;;5067597;28;20080;-85
2023/08/01 01:00:49;;;;;;;10.95;8.07;;;15.90;99.90;;;;;;5066242;28;20091;-84
2023/08/01 01:03:16;;;;;;;15.10;7.60;;;16.10;99.90;;;;;;5058142;28;20036;-85
2023/08/01 01:05:53;;;;;;;13.18;7.28;;;16.60;99.90;;;;;;5054868;28;20048;-83
2023/08/01 01:08:20;;;;;;;9.70;7.25;;;16.10;99.90;;;;;;5073969;28;20040;-85
2023/08/01 01:10:46;;;;;;;12.70;6.90;;;16.10;99.90;;;;;;5077830;28;20114;-84
2023/08/01 01:13:12;;;;;;;12.30;6.70;;;16.10;99.90;;;;;;5051616;28;20061;-84
2023/08/01 01:15:38;;;;;;;10.68;6.30;;;16.10;99.90;;;;;;5049910;28;20069;-85
2023/08/01 01:18:03;;;;;;;12.85;6.50;;;16.10;99.90;;;;;;5076876;28;20048;-85
2023/08/01 01:20:36;;;;;;;10.48;6.70;;;16.00;99.90;;;;;;5068695;28;20108;-84
2023/08/01 01:23:04;;;;;;;10.43;5.82;;;16.00;99.90;;;;;;5083623;28;20070;-84
2023/08/01 01:25:31;;;;;;;17.08;6.63;;;16.00;99.90;;;;;;5070078;28;20496;-84
2023/08/01 01:27:57;;;;;;;19.27;6.45;;;16.00;99.90;;;;;;5089424;28;20152;-84
2023/08/01 01:30:24;;;;;;;9.52;5.68;;;16.00;99.90;;;;;;5090176;28;20126;-85
2023/08/01 01:32:50;;;;;;;9.40;5.45;;;16.00;99.90;;;;;;5068836;28;20103;-84
2023/08/01 01:35:18;;;;;;;10.10;5.30;;;16.10;99.90;;;;;;5053851;28;20048;-84
2023/08/01 01:37:44;;;;;;;11.60;5.63;;;16.40;99.90;;;;;;5081524;28;20085;-84
2023/08/01 01:40:10;;;;;;;16.75;6.57;;;16.20;99.90;;;;;;5054834;28;20101;-86
2023/08/01 01:42:36;;;;;;;13.90;5.95;;;16.10;99.90;;;;;;5071527;28;20049;-85
2023/08/01 01:45:02;;;;;;;10.45;5.70;;;16.10;99.90;;;;;;5083387;28;20037;-85
2023/08/01 01:47:28;;;;;;;8.55;5.22;;;16.10;99.90;;;;;;5072719;28;20135;-85
2023/08/01 01:49:53;;;;;;;9.15;5.70;;;16.10;99.90;;;;;;5089323;28;20113;-85
2023/08/01 01:52:19;;;;;;;12.23;5.80;;;16.00;99.90;;;;;;5072179;28;20048;-85
2023/08/01 01:54:44;;;;;;;13.25;6.00;;;16.00;99.90;;;;;;5053385;28;20052;-84
2023/08/01 01:57:10;;;;;;;10.43;6.05;;;16.00;99.90;;;;;;5069526;28;20044;-84
2023/08/01 01:59:36;;;;;;;12.10;5.70;;;16.00;99.90;;;;;;5052439;28;20127;-85
2023/08/01 02:02:03;;;;;;;9.98;5.65;;;16.20;99.90;;;;;;5053005;28;20033;-85
2023/08/01 02:04:29;;;;;;;11.98;6.13;;;16.30;99.90;;;;;;5064780;28;20375;-84
2023/08/01 02:06:55;;;;;;;8.63;5.72;;;16.00;99.90;;;;;;5072924;28;20047;-85
2023/08/01 02:09:21;;;;;;;10.88;6.00;;;15.90;99.90;;;;;;5083868;28;20091;-86
2023/08/01 02:11:46;;;;;;;8.63;5.47;;;15.90;99.90;;;;;;5085180;28;20055;-84
2023/08/01 02:14:13;;;;;;;9.98;5.72;;;16.10;99.90;;;;;;5077482;28;20040;-85
2023/08/01 02:16:39;;;;;;;8.20;4.90;;;15.80;99.90;;;;;;5069108;28;20505;-86
2023/08/01 02:19:04;;;;;;;10.82;5.25;;;15.90;99.90;;;;;;5069473;28;20048;-86
2023/08/01 02:21:30;;;;;;;9.80;4.65;;;15.90;99.90;;;;;;5061643;28;20575;-85
2023/08/01 02:23:55;;;;;;;11.48;4.45;;;16.10;99.90;;;;;;5082872;28;20044;-85
2023/08/01 02:26:23;;;;;;;9.90;4.25;;;15.70;99.90;;;;;;5078484;28;20043;-85
2023/08/01 02:28:48;;;;;;;8.10;4.55;;;15.60;99.90;;;;;;5064093;28;20124;-85
2023/08/01 02:31:15;;;;;;;9.48;5.05;;;15.80;99.90;;;;;;5067383;28;20161;-85
2023/08/01 02:33:40;;;;;;;11.93;5.13;;;15.60;99.90;;;;;;5069028;28;20036;-85
2023/08/01 02:36:06;;;;;;;8.70;4.60;;;15.50;99.90;;;;;;5068600;28;20093;-85
2023/08/01 02:38:31;;;;;;;10.30;5.15;;;15.60;99.90;;;;;;5064581;28;20109;-85
2023/08/01 02:40:57;;;;;;;9.68;5.43;;;15.50;99.90;;;;;;5079101;28;20036;-85
2023/08/01 02:43:23;;;;;;;9.35;5.90;;;15.30;99.90;;;;;;5065213;28;20760;-85
2023/08/01 02:45:49;;;;;;;8.85;6.00;;;15.50;99.90;;;;;;5082424;28;20054;-85
2023/08/01 02:48:14;;;;;;;10.82;6.85;;;15.30;99.90;;;;;;5087956;28;20399;-86
2023/08/01 02:50:40;;;;;;;11.32;6.78;;;15.30;99.90;;;;;;5070025;28;20130;-85
2023/08/01 02:53:06;;;;;;;14.45;7.00;;;15.30;99.90;;;;;;5067118;28;20052;-85
2023/08/01 02:55:31;;;;;;;10.40;6.22;;;15.30;99.90;;;;;;5069396;28;20126;-85
2023/08/01 02:57:57;;;;;;;13.52;6.75;;;15.40;99.90;;;;;;5059881;28;20151;-85
2023/08/01 03:00:23;;;;;;;12.65;6.32;;;15.80;99.90;;;;;;5076699;28;20493;-85
2023/08/01 03:02:48;;;;;;;12.88;6.43;;;15.50;99.90;;;;;;5058375;28;20079;-85
2023/08/01 03:05:14;;;;;;;10.07;6.28;;;16.10;99.90;;;;;;5055984;28;20072;-84
2023/08/01 03:07:40;;;;;;;12.23;6.18;;;15.40;99.90;;;;;;5084065;28;20090;-85
2023/08/01 03:10:06;;;;;;;12.07;6.88;;;15.40;99.90;;;;;;5071412;28;20098;-85
2023/08/01 03:12:32;;;;;;;11.13;6.22;;;15.50;99.90;;;;;;5083949;28;20040;-85
2023/08/01 03:14:58;;;;;;;12.82;6.15;;;15.50;99.90;;;;;;5079018;28;20045;-85
2023/08/01 03:17:24;;;;;;;11.13;5.78;;;15.40;99.90;;;;;;5070291;28;20044;-86
2023/08/01 03:19:49;;;;;;;9.80;6.10;;;15.50;99.90;;;;;;5082521;28;20086;-86
2023/08/01 03:22:15;;;;;;;10.88;5.75;;;15.80;99.90;;;;;;5074922;28;20152;-85
2023/08/01 03:24:41;;;;;;;13.77;5.75;;;15.40;99.90;;;;;;5056809;28;20048;-85
2023/08/01 03:27:07;;;;;;;12.10;6.35;;;15.40;99.90;;;;;;5075983;28;20487;-84
2023/08/01 03:29:32;;;;;;;12.07;5.72;;;15.40;99.90;;;;;;5088146;28;20060;-84
2023/08/01 03:31:58;;;;;;;12.23;5.68;;;15.40;99.90;;;;;;5070513;28;20040;-85
2023/08/01 03:34:23;;;;;;;11.27;5.28;;;15.40;99.90;;;;;;5087231;28;20044;-85
2023/08/01 03:36:50;;;;;;;13.25;5.45;;;15.40;99.90;;;;;;5068692;28;20044;-86
2023/08/01 03:39:15;;;;;;;7.22;4.25;;;15.40;99.90;;;;;;5088970;28;20043;-87
2023/08/01 03:41:41;;;;;;;8.32;4.22;;;16.00;99.90;;;;;;5059344;28;20048;-85
2023/08/01 03:44:06;;;;;;;4.85;3.20;;;15.90;99.90;;;;;;5059255;28;20045;-85
2023/08/01 03:46:32;;;;;;;5.75;2.72;;;15.40;99.90;;;;;;5052390;28;20071;-88
2023/08/01 03:48:57;;;;;;;4.90;2.97;;;15.70;99.90;;;;;;5050759;28;20041;-84
2023/08/01 03:51:27;;;;;;;5.35;2.50;;;15.30;99.90;;;;;;5059034;28;20039;-86
2023/08/01 03:53:53;;;;;;;6.18;2.70;;;15.30;99.90;;;;;;5088079;28;20843;-85
2023/08/01 03:56:19;;;;;;;5.57;2.53;;;15.50;99.90;;;;;;5051384;28;20550;-85
2023/08/01 03:58:44;;;;;;;4.30;2.40;;;15.30;99.90;;;;;;5052912;28;20175;-85
2023/08/01 04:01:11;;;;;;;3.78;2.40;;;15.70;99.90;;;;;;5057448;28;20040;-84
2023/08/01 04:03:36;;;;;;;2.95;1.90;;;15.20;99.90;;;;;;5051881;28;20064;-84
2023/08/01 04:06:03;;;;;;;5.70;1.88;;;15.20;99.90;;;;;;5083123;28;20450;-85
2023/08/01 04:08:28;;;;;;;3.25;1.63;;;15.20;99.90;;;;;;5086190;28;20037;-85
2023/08/01 04:10:54;;;;;;;4.63;1.38;;;15.10;99.90;;;;;;5083865;28;20113;-84
2023/08/01 04:13:20;;;;;;;5.07;1.48;;;15.10;99.90;;;;;;5073777;28;20044;-85
2023/08/01 04:15:45;;;;;;;3.90;1.50;;;15.30;99.90;;;;;;5077773;28;20049;-85
2023/08/01 04:18:11;;;;;;;2.92;1.70;;;15.10;99.90;;;;;;5081406;28;20355;-85
2023/08/01 04:20:36;;;;;;;2.83;1.30;;;15.50;99.90;;;;;;5086211;28;20498;-85
2023/08/01 04:23:02;;;;;;;4.22;1.38;;;15.00;99.90;;;;;;5080144;28;20052;-85
2023/08/01 04:25:28;;;;;;;3.05;1.40;;;15.00;99.90;;;;;;5086731;28;20502;-85
2023/08/01 04:27:53;;;;;;;2.65;1.40;;;15.00;99.90;;;;;;5051488;28;20098;-85
2023/08/01 04:30:19;;;;;;;2.25;1.33;;;15.00;99.90;;;;;;5074682;28;20074;-84
2023/08/01 04:32:45;;;;;;;2.67;1.27;;;15.30;99.90;;;;;;5067772;28;20060;-85
2023/08/01 04:35:10;;;;;;;3.72;1.55;;;14.90;99.90;;;;;;5068734;28;20044;-86
2023/08/01 04:37:36;;;;;;;2.30;1.25;;;14.90;99.90;;;;;;5063241;28;20098;-85
2023/08/01 04:40:02;;;;;;;2.95;1.40;;;14.90;99.90;;;;;;5066602;28;20055;-85
2023/08/01 04:42:28;;;;;;;1.75;1.60;;;14.90;99.90;;;;;;5060462;28;20540;-85
2023/08/01 04:44:57;;;;;;;3.70;1.30;;;14.90;99.90;;;;;;5068014;28;20040;-85
2023/08/01 04:47:23;;;;;;;2.72;1.50;;;14.80;99.90;;;;;;5071218;28;20060;-86
2023/08/01 04:49:49;;;;;;;2.72;1.40;;;14.80;99.90;;;;;;5087064;28;20047;-85
2023/08/01 04:52:14;;;;;;;2.45;1.38;;;14.80;99.90;;;;;;5075434;28;20376;-85
2023/08/01 04:54:40;;;;;;;2.22;1.60;;;14.80;99.90;;;;;;5093952;28;20044;-85
2023/08/01 04:57:06;;;;;;;3.25;1.50;;;14.80;99.90;;;;;;5075742;28;20044;-85
2023/08/01 04:59:31;;;;;;;3.45;1.60;;;14.80;99.90;;;;;;5082672;28;20043;-85
2023/08/01 05:01:57;;;;;;;1.88;1.40;;;14.80;99.90;;;;;;5068037;28;20087;-85
2023/08/01 05:04:23;;;;;;;3.78;1.55;;;14.80;99.90;;;;;;5066274;28;20461;-85
2023/08/01 05:06:48;;;;;;;2.53;1.35;;;14.90;99.90;;;;;;5067579;28;20042;-85
2023/08/01 05:09:14;;;;;;;2.10;1.23;;;15.00;99.90;;;;;;5074481;28;20048;-85
2023/08/01 05:11:39;;;;;;;2.20;1.38;;;15.00;99.90;;;;;;5078972;28;20386;-85
2023/08/01 05:14:05;;;;;;;1.75;1.27;;;15.00;99.90;;;;;;5077410;28;20052;-86
2023/08/01 05:16:31;;;;;;;3.35;1.30;;;15.10;99.90;;;;;;5073942;28;20052;-84
2023/08/01 05:18:57;;;;;;;2.13;1.08;;;15.00;99.90;;;;;;5057061;28;20048;-85
2023/08/01 05:21:22;;;;;;;1.50;1.10;;;15.50;99.90;;;;;;5079681;28;20559;-84
2023/08/01 05:23:48;;;;;;;3.17;1.35;;;15.20;99.90;;;;;;5049448;28;20557;-84
2023/08/01 05:26:13;;;;;;;3.53;1.50;;;15.30;99.90;;;;;;5049692;28;20044;-85
2023/08/01 05:28:39;;;;;;;2.15;1.65;;;15.70;99.90;;;;;;5050679;28;20051;-85
2023/08/01 05:31:07;;;;;;;2.40;1.50;;;16.20;99.90;;;;;;5059387;28;20040;-87
2023/08/01 05:33:32;;;;;;;2.65;1.58;;;16.10;99.90;;;;;;5065880;28;20064;-85
2023/08/01 05:35:58;;;;;;;2.55;1.40;;;15.50;99.90;;;;;;5076896;28;20048;-84
2023/08/01 05:38:24;;;;;;;2.13;1.70;;;15.50;99.90;;;;;;5080056;28;20044;-86
2023/08/01 05:40:49;;;;;;;3.40;1.63;;;15.50;99.90;;;;;;5086236;28;20056;-84
2023/08/01 05:43:15;;;;;;;3.05;1.65;;;15.50;99.90;;;;;;5086311;28;20394;-85
2023/08/01 05:45:40;;;;;;;2.50;1.65;;;15.50;99.90;;;;;;5060273;28;20032;-84
2023/08/01 05:48:06;;;;;;;4.35;1.73;;;15.60;99.90;;;;;;5084132;28;20066;-86
2023/08/01 05:50:32;;;;;;;3.90;1.65;;;16.00;99.90;;;;;;5086162;28;20416;-85
2023/08/01 05:52:57;;;;;;;4.05;1.70;;;15.60;99.90;;;;;;5068642;28;20593;-85
2023/08/01 05:55:23;;;;;;;4.28;1.95;;;15.60;99.90;;;;;;5083384;28;20040;-86
2023/08/01 05:57:52;;;;;;;4.65;2.03;;;15.60;99.90;;;;;;5051115;28;20055;-86
2023/08/01 06:00:21;;;;;;;3.88;1.90;;;15.60;99.90;;;;;;5065800;28;20052;-84
2023/08/01 06:02:47;;;;;;;4.00;2.10;;;15.70;99.90;;;;;;5065667;28;20174;-84
2023/08/01 06:05:12;;;;;;;2.38;2.17;;;16.00;99.90;;;;;;5078690;28;20048;-85
2023/08/01 06:07:38;;;;;;;3.83;2.03;;;16.00;99.90;;;;;;5078312;28;20044;-87
2023/08/01 06:10:04;;;;;;;3.10;2.10;;;16.20;99.90;;;;;;5069961;28;20139;-83
2023/08/01 06:12:30;;;;;;;3.28;1.52;;;15.90;99.90;;;;;;5076856;28;20063;-82
2023/08/01 06:14:55;;;;;;;4.25;1.75;;;16.00;99.90;;;;;;5089533;28;20127;-85
2023/08/01 06:17:21;;;;;;;2.55;1.85;;;16.00;99.90;;;;;;5070620;28;20498;-83
2023/08/01 06:19:47;;;;;;;2.17;1.27;;;16.10;99.90;;;;;;5069775;28;20547;-83
2023/08/01 06:22:13;;;;;;;2.42;1.58;;;16.40;99.90;;;;;;5069227;28;20111;-82
2023/08/01 06:24:38;;;;;;;1.58;1.30;;;17.30;99.90;;;;;;5068945;28;20404;-82
2023/08/01 06:27:05;;;;;;;3.45;1.55;;;17.40;99.90;;;;;;5080267;28;20432;-85
2023/08/01 06:29:31;;;;;;;2.38;1.13;;;17.40;99.90;;;;;;5088152;28;20051;-84
2023/08/01 06:31:59;;;;;;;1.33;1.10;;;17.60;99.90;;;;;;5090326;28;20071;-84
2023/08/01 06:34:25;;;;;;;2.72;1.40;;;17.00;99.90;;;;;;5090705;28;20458;-83
2023/08/01 06:36:51;;;;;;;2.28;1.20;;;16.90;99.90;;;;;;5086393;28;20127;-84
2023/08/01 06:39:16;;;;;;;3.17;1.33;;;17.60;99.90;;;;;;5083395;28;20070;-83
2023/08/01 06:41:45;;;;;;;2.80;1.60;;;17.00;99.90;;;;;;5072954;28;20052;-84
2023/08/01 06:44:10;;;;;;;2.40;1.65;;;17.50;99.90;;;;;;5089535;28;20070;-83
2023/08/01 06:46:36;;;;;;;1.73;1.25;;;16.70;99.90;;;;;;5083495;28;20144;-83
2023/08/01 06:49:02;;;;;;;2.45;1.60;;;16.70;99.90;;;;;;5069117;28;20060;-84
2023/08/01 06:51:27;;;;;;;3.22;1.63;;;16.80;99.90;;;;;;5068936;28;20058;-85
2023/08/01 06:53:53;;;;;;;2.85;1.70;;;16.80;99.90;;;;;;5051947;28;20119;-83
2023/08/01 06:56:18;;;;;;;3.47;1.30;;;16.80;99.90;;;;;;5071222;28;20043;-85
2023/08/01 06:58:44;;;;;;;3.92;1.60;;;17.30;99.90;;;;;;5081247;28;20189;-84
2023/08/01 07:01:10;;;;;;;3.50;1.42;;;16.70;99.90;;;;;;5087199;28;20044;-83
2023/08/01 07:03:35;;;;;;;2.42;1.58;;;16.70;99.90;;;;;;5086781;28;20032;-86
2023/08/01 07:06:01;;;;;;;2.40;1.70;;;17.00;99.90;;;;;;5087862;28;20047;-84
2023/08/01 07:08:26;;;;;;;2.50;1.20;;;17.10;99.90;;;;;;5071135;28;20052;-84
2023/08/01 07:10:52;;;;;;;3.83;1.40;;;17.20;99.90;;;;;;5050966;28;20131;-84
2023/08/01 07:13:19;;;;;;;3.20;1.40;;;17.30;99.90;;;;;;5068243;28;20052;-84
2023/08/01 07:15:45;;;;;;;2.38;1.48;;;17.50;99.90;;;;;;5050945;28;20105;-84
2023/08/01 07:18:10;;;;;;;4.63;1.45;;;17.70;99.90;;;;;;5069246;28;20040;-84
2023/08/01 07:20:36;;;;;;;5.03;1.48;;;18.20;99.90;;;;;;5067944;28;20131;-84
2023/08/01 07:23:02;;;;;;;3.03;1.52;;;18.50;99.90;;;;;;5075164;28;20040;-85
2023/08/01 07:25:27;;;;;;;2.88;1.20;;;17.90;99.90;;;;;;5081619;28;20063;-85
2023/08/01 07:27:53;;;;;;;3.70;1.50;;;18.00;99.90;;;;;;5067971;28;20048;-84
2023/08/01 07:30:21;;;;;;;5.82;1.60;;;18.20;99.90;;;;;;5080499;28;20089;-83
2023/08/01 07:32:47;;;;;;;2.88;1.20;;;18.30;99.90;;;;;;5088431;28;20052;-85
2023/08/01 07:35:13;;;;;;;3.10;1.40;;;18.40;99.90;;;;;;5072362;28;20406;-84
2023/08/01 07:37:39;;;;;;;3.70;1.70;;;18.20;99.90;;;;;;5088561;28;20048;-84
2023/08/01 07:40:06;;;;;;;5.25;1.80;;;18.30;99.90;;;;;;5070411;28;20060;-85
2023/08/01 07:42:32;;;;;;;4.88;1.67;;;17.90;99.90;;;;;;5087767;28;20810;-84
2023/08/01 07:44:57;;;;;;;2.92;1.40;;;18.20;99.90;;;;;;5086611;28;20086;-84
2023/08/01 07:47:25;;;;;;;4.15;1.50;;;17.60;99.90;;;;;;5070605;28;20392;-84
2023/08/01 07:49:51;;;;;;;3.30;1.10;;;17.50;99.90;;;;;;5085691;28;20040;-84
2023/08/01 07:52:17;;;;;;;2.65;1.30;;;17.40;99.90;;;;;;5087125;28;20086;-83
2023/08/01 07:54:43;;;;;;;4.40;1.40;;;17.60;99.90;;;;;;5085989;28;20048;-84
2023/08/01 07:57:08;;;;;;;3.33;1.23;;;17.30;99.90;;;;;;5068493;28;20054;-85
2023/08/01 07:59:34;;;;;;;3.72;1.70;;;17.20;99.90;;;;;;5086895;28;20051;-84
2023/08/01 08:01:59;;;;;;;1.67;1.27;;;17.10;99.90;;;;;;5082763;28;20051;-84
2023/08/01 08:04:25;;;;;;;3.78;1.52;;;17.00;99.90;;;;;;5058196;28;20455;-85
2023/08/01 08:06:52;;;;;;;6.78;2.42;;;16.80;99.90;;;;;;5066611;28;20108;-85
2023/08/01 08:09:18;;;;;;;4.07;1.60;;;16.80;99.90;;;;;;5060706;28;20040;-87
2023/08/01 08:11:44;;;;;;;4.68;1.95;;;16.60;99.90;;;;;;5088120;28;20097;-87
2023/08/01 08:14:11;;;;;;;3.65;1.60;;;16.60;99.90;;;;;;5067382;28;20496;-85
2023/08/01 08:16:36;;;;;;;5.68;1.77;;;16.50;99.90;;;;;;5064472;28;20055;-87
2023/08/01 08:19:02;;;;;;;4.43;1.90;;;16.60;99.90;;;;;;5050641;28;20040;-86
2023/08/01 08:21:28;;;;;;;5.85;2.20;;;16.50;99.90;;;;;;5050264;28;20040;-84
2023/08/01 08:23:53;;;;;;;5.45;1.90;;;16.50;99.90;;;;;;5070057;28;20051;-86
2023/08/01 08:26:19;;;;;;;4.32;1.73;;;16.50;99.90;;;;;;5050640;28;20040;-87
2023/08/01 08:28:44;;;;;;;3.47;1.77;;;16.40;99.90;;;;;;5070774;28;20040;-86
2023/08/01 08:31:10;;;;;;;6.15;1.90;;;16.20;99.90;;;;;;5054385;28;20050;-85
2023/08/01 08:33:36;;;;;;;4.30;2.00;;;16.20;99.90;;;;;;5076802;28;20048;-88
2023/08/01 08:36:01;;;;;;;4.55;1.88;;;16.60;99.90;;;;;;5055101;28;20055;-88
2023/08/01 08:38:28;;;;;;;4.22;1.70;;;16.10;99.90;;;;;;5050801;28;20056;-86
2023/08/01 08:41:10;;;;;;;3.28;1.92;;;16.00;99.90;;;;;;5077827;28;20076;-87
2023/08/01 08:43:37;;;;;;;4.90;1.77;;;16.00;99.90;;;;;;5074825;28;20043;-88
2023/08/01 08:46:04;;;;;;;3.90;1.90;;;16.00;99.90;;;;;;5067082;28;20044;-86
2023/08/01 08:48:30;;;;;;;3.83;2.08;;;16.00;99.90;;;;;;5074920;28;20055;-86
2023/08/01 08:51:01;;;;;;;6.20;2.08;;;16.70;99.90;;;;;;5053407;28;20051;-87
2023/08/01 08:53:26;;;;;;;7.43;1.98;;;16.30;99.90;;;;;;5066760;28;20044;-84
2023/08/01 08:55:53;;;;;;;3.95;1.90;;;16.10;99.90;;;;;;5065993;28;20044;-85
2023/08/01 08:58:18;;;;;;;4.30;2.38;;;16.00;99.90;;;;;;5054211;28;20055;-86
2023/08/01 09:00:44;;;;;;;7.35;2.40;;;16.40;99.90;;;;;;5083188;28;20044;-83
2023/08/01 09:03:10;;;;;;;5.40;2.38;;;16.10;99.90;;;;;;5086801;28;20549;-83
2023/08/01 09:05:49;;;;;;;4.63;2.42;;;16.50;99.90;;;;;;5077334;28;20083;-82
2023/08/01 09:08:20;;;;;;;5.95;2.70;;;16.00;99.90;;;;;;5067026;28;20040;-82
2023/08/01 09:10:47;;;;;;;5.65;2.60;;;16.10;99.90;;;;;;5087538;28;20051;-83
2023/08/01 09:13:13;;;;;;;5.70;3.00;;;16.20;99.90;;;;;;5070625;28;20418;-83
2023/08/01 09:15:42;;;;;;;5.97;2.60;;;16.50;99.90;;;;;;5066467;28;20051;-83
2023/08/01 09:18:09;;;;;;;4.68;2.85;;;16.30;99.90;;;;;;5049765;28;20040;-83
2023/08/01 09:20:46;;;;;;;5.93;2.92;;;17.00;99.90;;;;;;5067741;28;20548;-83
2023/08/01 09:23:11;;;;;;;5.82;2.45;;;16.40;99.90;;;;;;5050894;28;20160;-83
2023/08/01 09:25:37;;;;;;;5.75;3.00;;;16.30;99.90;;;;;;5049279;28;20585;-86
2023/08/01 09:28:14;;;;;;;4.15;2.72;;;16.30;99.90;;;;;;5069197;28;20048;-83
2023/08/01 09:30:54;;;;;;;6.05;2.80;;;16.20;99.90;;;;;;5049576;28;20509;-85
2023/08/01 09:33:23;;;;;;;5.90;2.42;;;16.10;99.90;;;;;;5051852;28;20113;-84
2023/08/01 09:35:52;;;;;;;6.63;2.50;;;16.00;99.90;;;;;;5051166;28;20075;-85
2023/08/01 09:38:20;;;;;;;4.13;2.30;;;16.00;99.90;;;;;;5065864;28;20045;-86
2023/08/01 09:40:46;;;;;;;4.65;2.28;;;15.90;99.90;;;;;;5049637;28;20040;-84
2023/08/01 09:43:13;;;;;;;3.53;2.05;;;15.90;99.90;;;;;;5066745;28;20111;-85
2023/08/01 09:45:51;;;;;;;3.75;1.90;;;15.90;99.90;;;;;;5085356;28;20466;-85
2023/08/01 09:48:27;;;;;;;5.07;2.35;;;15.80;99.90;;;;;;5069669;28;20167;-84
2023/08/01 09:51:10;;;;;;;3.83;1.98;;;16.40;99.90;;;;;;5069539;28;20053;-85
2023/08/01 09:53:49;;;;;;;2.72;1.60;;;16.40;99.90;;;;;;5053179;28;20076;-83
2023/08/01 09:56:23;;;;;;;4.43;1.80;;;17.70;99.90;;;;;;5070636;28;20101;-84
2023/08/01 09:58:50;;;;;;;3.50;1.80;;;17.20;99.90;;;;;;5078961;28;20052;-84
2023/08/01 10:01:17;;;;;;;3.22;1.83;;;17.30;99.90;;;;;;5070880;28;20877;-84
2023/08/01 10:03:47;;;;;;;3.78;1.50;;;18.20;99.90;;;;;;5055105;28;20044;-83
2023/08/01 10:06:23;;;;;;;4.65;1.90;;;17.60;99.90;;;;;;5076684;28;20441;-85
2023/08/01 10:08:50;;;;;;;4.35;1.55;;;17.70;99.90;;;;;;5053528;28;20044;-84
2023/08/01 10:11:22;;;;;;;4.25;1.58;;;18.00;99.90;;;;;;5080724;28;20040;-84
2023/08/01 10:13:48;;;;;;;3.58;1.50;;;17.80;99.90;;;;;;5088458;28;20051;-84
2023/08/01 10:16:15;;;;;;;3.95;1.80;;;17.80;99.90;;;;;;5052938;28;20037;-84
2023/08/01 10:18:42;;;;;;;4.63;1.77;;;17.90;99.90;;;;;;5073037;28;20040;-83
2023/08/01 10:21:11;;;;;;;2.65;1.50;;;18.00;99.90;;;;;;5089997;28;20048;-84
2023/08/01 10:23:38;;;;;;;2.92;1.50;;;18.10;99.90;;;;;;5089191;28;20044;-83
2023/08/01 10:26:05;;;;;;;3.38;1.60;;;17.90;99.90;;;;;;5072788;28;20051;-83
2023/08/01 10:28:33;;;;;;;4.68;1.65;;;17.50;99.90;;;;;;5068483;28;20044;-83
2023/08/01 10:31:13;;;;;;;2.67;1.50;;;17.40;99.90;;;;;;5069052;28;20052;-84
2023/08/01 10:33:42;;;;;;;4.95;1.80;;;17.30;99.90;;;;;;5054445;28;20033;-85
2023/08/01 10:36:17;;;;;;;4.50;1.65;;;17.60;99.90;;;;;;5070515;28;20056;-86
2023/08/01 10:38:51;;;;;;;3.75;1.85;;;17.10;99.90;;;;;;5052773;28;20040;-86
2023/08/01 10:41:34;;;;;;;4.75;1.90;;;17.40;99.90;;;;;;5069092;28;20040;-86
2023/08/01 10:44:12;;;;;;;4.47;1.95;;;17.10;99.90;;;;;;5068831;28;20048;-85
2023/08/01 10:46:55;;;;;;;4.38;2.05;;;17.10;99.90;;;;;;5056555;28;20060;-85
2023/08/01 10:49:32;;;;;;;4.20;1.90;;;17.10;99.90;;;;;;5057534;28;20071;-85
2023/08/01 10:51:58;;;;;;;4.72;2.10;;;17.10;99.90;;;;;;5053215;28;20719;-87
2023/08/01 10:54:25;;;;;;;8.23;2.47;;;17.20;99.90;;;;;;5068249;28;20044;-85
2023/08/01 10:56:59;;;;;;;5.18;2.70;;;17.00;99.90;;;;;;5067495;28;20413;-86
2023/08/01 10:59:26;;;;;;;4.80;2.10;;;17.10;99.90;;;;;;5068888;28;20058;-86
2023/08/01 11:01:53;;;;;;;7.22;2.67;;;17.10;99.90;;;;;;5051489;28;20087;-84
2023/08/01 11:04:21;;;;;;;6.47;2.88;;;17.10;99.90;;;;;;5051586;28;20201;-85
2023/08/01 11:06:48;;;;;;;8.70;2.63;;;17.80;99.90;;;;;;5052312;28;20051;-85
2023/08/01 11:09:18;;;;;;;7.15;2.40;;;17.20;99.90;;;;;;5055928;28;20036;-83
2023/08/01 11:11:45;;;;;;;4.22;1.92;;;17.80;99.90;;;;;;5074169;28;20137;-85
2023/08/01 11:14:13;;;;;;;7.30;2.30;;;17.60;99.90;;;;;;5068534;28;20132;-83
2023/08/01 11:16:39;;;;;;;6.82;2.25;;;17.70;99.90;;;;;;5050950;28;20164;-83
2023/08/01 11:19:05;;;;;;;7.05;2.53;;;18.10;99.90;;;;;;5068538;28;20201;-83
2023/08/01 11:21:30;;;;;;;11.23;2.40;;;18.90;99.90;;;;;;5052105;28;20040;-83
2023/08/01 11:23:56;;;;;;;6.30;2.30;;;18.70;99.90;;;;;;5051063;28;20101;-84
2023/08/01 11:26:23;;;;;;;8.32;2.28;;;18.60;99.90;;;;;;5068174;28;20037;-86
2023/08/01 11:28:48;;;;;;;7.57;2.05;;;18.60;99.90;;;;;;5068106;28;20049;-87
2023/08/01 11:31:14;;;;;;;6.88;2.22;;;19.00;99.90;;;;;;5053345;28;20044;-85
2023/08/01 11:33:40;;;;;;;5.75;1.90;;;18.40;99.90;;;;;;5051059;28;20036;-85
2023/08/01 11:36:06;;;;;;;5.82;2.13;;;18.30;99.90;;;;;;5051254;28;20049;-84
2023/08/01 11:38:34;;;;;;;6.60;2.10;;;17.80;99.90;;;;;;5070027;28;20052;-84
2023/08/01 11:41:04;;;;;;;7.55;2.13;;;18.30;99.90;;;;;;5075794;28;20048;-84
2023/08/01 11:43:41;;;;;;;5.65;2.00;;;17.80;99.90;;;;;;5058390;28;20075;-85
2023/08/01 11:46:06;;;;;;;5.75;2.20;;;17.50;99.90;;;;;;5067383;28;20052;-84
2023/08/01 11:48:32;;;;;;;4.90;1.90;;;17.50;99.90;;;;;;5087688;28;20075;-84
2023/08/01 11:50:59;;;;;;;6.30;2.20;;;17.60;99.90;;;;;;5070369;28;20074;-85
2023/08/01 11:53:28;;;;;;;3.25;1.70;;;17.90;99.90;;;;;;5061893;28;20068;-84
2023/08/01 11:55:56;;;;;;;7.18;1.83;;;18.20;99.90;;;;;;5077538;28;20094;-84
2023/08/01 11:58:48;;;;;;;3.95;1.60;;;18.30;99.90;;;;;;5060582;28;20048;-83
2023/08/01 12:01:14;;;;;;;;;;;18.20;99.90;;;;;;5068864;28;20443;-83
2023/08/01 12:03:50;;;;;;;3.85;1.23;;;18.40;99.90;;;;;;5076526;28;19920;-84
2023/08/01 12:06:18;;;;;;;3.50;1.50;;;17.60;99.90;;;;;;5058006;28;20036;-83
2023/08/01 12:08:45;;;;;;;2.78;1.08;;;17.70;99.90;;;;;;5085106;28;20155;-83
2023/08/01 12:11:25;;;;;;;4.20;1.40;;;17.90;99.90;;;;;;5084067;28;20036;-84
2023/08/01 12:14:23;;;;;;;3.53;1.58;;;17.40;99.90;;;;;;5074478;28;20067;-84
2023/08/01 12:16:48;;;;;;;4.30;1.60;;;17.40;99.90;;;;;;5082888;28;20056;-84
2023/08/01 12:19:19;;;;;;;6.40;2.10;;;17.50;99.90;;;;;;5074161;28;20078;-85
2023/08/01 12:21:45;;;;;;;5.68;1.95;;;17.60;99.90;;;;;;5066907;28;20536;-84
2023/08/01 12:24:10;;;;;;;6.95;1.67;;;17.80;99.90;;;;;;5081858;28;20052;-84
2023/08/01 12:26:36;;;;;;;4.90;1.83;;;18.10;99.90;;;;;;5086267;28;20476;-84
2023/08/01 12:29:01;;;;;;;4.93;1.80;;;18.20;99.90;;;;;;5086863;28;20047;-84
2023/08/01 12:31:27;;;;;;;5.97;2.00;;;18.40;99.90;;;;;;5069828;28;20036;-84
2023/08/01 12:33:53;;;;;;;12.70;2.47;;;18.50;99.90;;;;;;5076409;28;20051;-85
2023/08/01 12:36:19;;;;;;;3.10;1.77;;;18.80;99.90;;;;;;5067667;28;20494;-83
2023/08/01 12:38:45;;;;;;;4.32;2.00;;;18.90;99.90;;;;;;5073812;28;20043;-85
2023/08/01 12:41:10;;;;;;;3.15;1.63;;;18.60;99.90;;;;;;5084309;28;20036;-85
2023/08/01 12:43:36;;;;;;;4.85;1.40;;;18.30;99.90;;;;;;5083034;28;20105;-84
2023/08/01 12:46:02;;;;;;;2.88;1.65;;;18.10;99.90;;;;;;5067351;28;20088;-83